Time;durP1;ratioP1;P1;durP2;ratioP2;P2;SDS_P1;SDS_P2;PMS_P1;PMS_P2;Temp;Humidity;BMP_temperature;BMP_pressure;BME280_temperature;BME280_humidity;BME280_pressure;Samples;Min_cycle;Max_cycle;Signal;HPM_P1;HPM_P2
2023/04/14 04:30:42;;;;;;;;;3.00;3.00;;;;;9.90;62.65;100467.31;5088854;27;45796;-76
2023/04/14 04:33:09;;;;;;;;;5.75;2.50;;;;;9.88;62.78;100457.53;5100243;27;45343;-78
2023/04/14 04:35:35;;;;;;;;;2.25;2.25;;;;;9.90;62.56;100456.59;5099223;27;46412;-75
2023/04/14 04:38:00;;;;;;;;;2.00;2.00;;;;;9.90;62.11;100459.28;5097347;27;45271;-76
2023/04/14 04:40:26;;;;;;;;;3.50;3.50;;;;;9.88;62.69;100462.88;5098189;27;45263;-75
2023/04/14 04:42:51;;;;;;;;;3.00;3.00;;;;;9.91;62.46;100455.66;5098045;27;46145;-75
2023/04/14 04:45:58;;;;;;;;;5.00;4.25;;;;;9.85;62.85;100443.44;5079344;27;48515;-76
2023/04/14 04:48:24;;;;;;;;;3.25;3.25;;;;;9.86;62.87;100450.53;5076401;27;45376;-76
2023/04/14 04:50:49;;;;;;;;;4.00;2.75;;;;;9.82;62.86;100438.22;5092363;27;45784;-75
2023/04/14 04:53:15;;;;;;;;;5.00;3.50;;;;;9.79;63.08;100433.88;5077166;28;46983;-75
2023/04/14 04:55:41;;;;;;;;;3.00;3.00;;;;;9.80;62.95;100432.94;5077675;27;47273;-77
2023/04/14 04:58:07;;;;;;;;;6.00;6.00;;;;;9.72;62.75;100427.06;5098085;27;45454;-76
2023/04/14 05:00:32;;;;;;;;;4.00;4.00;;;;;9.76;62.62;100439.38;5098235;27;45440;-75
2023/04/14 05:02:58;;;;;;;;;5.25;4.00;;;;;9.77;62.81;100427.75;5079887;27;45327;-75
2023/04/14 05:05:23;;;;;;;;;4.00;4.00;;;;;9.75;62.59;100431.44;5098002;27;45416;-78
2023/04/14 05:07:48;;;;;;;;;2.00;2.00;;;;;9.78;62.94;100433.97;5098076;27;45267;-78
2023/04/14 05:10:14;;;;;;;;;4.00;4.00;;;;;9.77;62.91;100435.78;5097636;27;45373;-74
2023/04/14 05:12:40;;;;;;;;;4.00;4.00;;;;;9.70;63.29;100431.63;5097431;27;45470;-75
2023/04/14 05:15:07;;;;;;;;;4.00;4.00;;;;;9.64;63.24;100417.66;5097163;27;45406;-74
2023/04/14 05:17:32;;;;;;;;;3.50;2.75;;;;;9.67;62.85;100422.88;5097157;27;45322;-76
2023/04/14 05:19:58;;;;;;;;;3.25;3.25;;;;;9.66;63.02;100423.81;5097162;27;45298;-76
2023/04/14 05:22:23;;;;;;;;;6.50;5.25;;;;;9.65;63.14;100408.72;5096862;27;45360;-75
2023/04/14 05:24:50;;;;;;;;;10.25;6.00;;;;;9.71;63.21;100414.63;5053369;28;47700;-75
2023/04/14 05:27:15;;;;;;;;;6.00;5.25;;;;;9.73;62.95;100414.56;5088586;27;45381;-74
2023/04/14 05:29:41;;;;;;;;;3.00;3.00;;;;;9.68;63.13;100417.47;5096979;27;45370;-76
2023/04/14 05:32:06;;;;;;;;;6.50;4.00;;;;;9.63;63.21;100410.59;5083030;27;45456;-73
2023/04/14 05:34:32;;;;;;;;;5.25;4.00;;;;;9.61;63.43;100417.84;5081325;27;45295;-74
2023/04/14 05:36:57;;;;;;;;;8.00;6.50;;;;;9.63;63.43;100419.47;5076615;28;45327;-73
2023/04/14 05:39:22;;;;;;;;;6.50;6.50;;;;;9.61;63.58;100418.69;5076820;27;45376;-76
2023/04/14 05:41:48;;;;;;;;;4.50;4.00;;;;;9.52;63.59;100394.19;5076553;28;45374;-70
2023/04/14 05:44:13;;;;;;;;;4.00;4.00;;;;;9.60;63.98;100400.03;5077813;27;47402;-74
2023/04/14 05:46:40;;;;;;;;;7.00;6.00;;;;;9.63;63.99;100405.22;5084779;27;45327;-70
2023/04/14 05:49:05;;;;;;;;;4.75;3.50;;;;;9.70;63.66;100404.00;5076311;27;45426;-71
2023/04/14 05:51:31;;;;;;;;;6.00;6.00;;;;;9.71;63.34;100401.25;5087720;27;45454;-79
2023/04/14 05:53:57;;;;;;;;;3.25;3.25;;;;;9.67;63.32;100380.06;5078482;27;46399;-82
2023/04/14 05:56:22;;;;;;;;;6.75;6.75;;;;;9.76;63.39;100393.88;5070683;27;45359;-77
2023/04/14 05:58:48;;;;;;;;;5.25;5.25;;;;;9.76;63.44;100399.22;5061324;27;45580;-78
2023/04/14 06:01:13;;;;;;;;;7.25;5.75;;;;;9.75;63.22;100393.94;5096623;27;45453;-76
2023/04/14 06:03:38;;;;;;;;;6.50;6.50;;;;;9.72;63.36;100400.31;5096423;27;45309;-78
2023/04/14 06:06:04;;;;;;;;;8.00;7.00;;;;;9.72;63.61;100399.44;5077805;27;45408;-77
2023/04/14 06:08:29;;;;;;;;;6.00;6.00;;;;;9.57;63.31;100382.31;5095281;27;45454;-77
2023/04/14 06:10:55;;;;;;;;;6.00;6.00;;;;;9.59;63.63;100387.59;5077904;27;46087;-77
2023/04/14 06:13:21;;;;;;;;;5.50;5.50;;;;;9.55;63.99;100388.66;5096338;27;45297;-77
2023/04/14 06:15:49;;;;;;;;;7.00;7.00;;;;;9.53;64.19;100393.25;5096556;27;45377;-75
2023/04/14 06:18:15;;;;;;;;;7.50;7.50;;;;;9.55;63.64;100399.38;5096277;27;45377;-77
2023/04/14 06:20:41;;;;;;;;;7.75;7.75;;;;;9.20;63.51;100337.69;5096295;27;45256;-76
2023/04/14 06:23:07;;;;;;;;;8.50;8.50;;;;;9.37;63.88;100369.88;5095434;27;46237;-77
2023/04/14 06:25:33;;;;;;;;;8.25;8.00;;;;;9.40;63.86;100396.47;5095876;27;45354;-81
2023/04/14 06:28:02;;;;;;;;;10.00;7.50;;;;;9.33;64.23;100397.72;5096425;27;45415;-78
2023/04/14 06:30:33;;;;;;;;;9.00;9.00;;;;;9.19;64.52;100368.03;5075900;28;46602;-77
2023/04/14 06:33:02;;;;;;;;;10.00;9.00;;;;;9.27;64.92;100394.47;5075347;28;45387;-77
2023/04/14 06:35:28;;;;;;;;;15.00;9.25;;;;;9.26;65.52;100385.56;5059876;28;45341;-78
2023/04/14 06:37:53;;;;;;;;;12.75;11.75;;;;;8.99;65.02;100347.59;5075336;28;45220;-79
2023/04/14 06:40:19;;;;;;;;;13.00;9.00;;;;;9.23;65.24;100375.00;5075905;28;45473;-78
2023/04/14 06:42:44;;;;;;;;;13.75;12.00;;;;;9.23;65.04;100376.81;5075164;28;45339;-78
2023/04/14 06:45:10;;;;;;;;;13.25;10.75;;;;;9.26;65.64;100366.84;5075339;28;45256;-76
2023/04/14 06:47:35;;;;;;;;;13.25;9.00;;;;;9.29;65.04;100369.34;5057019;28;45330;-74
2023/04/14 06:50:01;;;;;;;;;13.25;12.25;;;;;9.17;65.66;100359.25;5075313;28;45383;-75
2023/04/14 06:52:27;;;;;;;;;12.75;12.00;;;;;9.13;65.88;100343.38;5074552;28;45621;-74
2023/04/14 06:54:52;;;;;;;;;15.50;14.25;;;;;9.16;65.56;100336.09;5074881;28;45314;-75
2023/04/14 06:57:17;;;;;;;;;14.00;14.00;;;;;9.22;65.46;100342.97;5075022;27;45484;-75
2023/04/14 06:59:43;;;;;;;;;16.00;14.00;;;;;9.10;65.49;100315.00;5072185;27;45537;-74
2023/04/14 07:02:08;;;;;;;;;16.25;13.50;;;;;9.37;65.45;100343.09;5074539;27;46308;-76
2023/04/14 07:04:36;;;;;;;;;12.75;11.75;;;;;9.40;65.27;100352.81;5075395;27;45512;-77
2023/04/14 07:07:01;;;;;;;;;14.00;14.00;;;;;9.43;65.67;100361.56;5047099;28;45454;-73
2023/04/14 07:09:27;;;;;;;;;13.50;13.50;;;;;9.37;65.50;100326.19;5053634;28;47873;-73
2023/04/14 07:11:53;;;;;;;;;14.00;14.00;;;;;9.41;65.74;100350.06;5073345;28;47253;-73
2023/04/14 07:14:19;;;;;;;;;13.75;13.75;;;;;9.51;65.55;100358.53;5082879;27;45311;-73
2023/04/14 07:16:44;;;;;;;;;15.25;15.25;;;;;9.61;65.42;100357.13;5076306;27;45583;-75
2023/04/14 07:19:10;;;;;;;;;17.00;17.00;;;;;9.69;65.28;100348.75;5055904;28;45665;-74
2023/04/14 07:21:36;;;;;;;;;16.00;14.25;;;;;9.75;64.93;100340.41;5073851;28;45546;-74
2023/04/14 07:24:02;;;;;;;;;10.00;10.00;;;;;9.73;64.81;100344.97;5074786;28;45385;-73
2023/04/14 07:26:28;;;;;;;;;12.25;11.50;;;;;9.69;65.06;100328.19;5073323;28;45486;-76
2023/04/14 07:28:55;;;;;;;;;16.75;16.25;;;;;9.83;64.38;100339.09;5052880;28;47956;-76
2023/04/14 07:31:20;;;;;;;;;10.75;10.75;;;;;9.92;64.78;100339.59;5062976;27;47042;-74
2023/04/14 07:33:46;;;;;;;;;16.50;12.25;;;;;9.91;64.17;100336.03;5096296;27;45694;-74
2023/04/14 07:36:11;;;;;;;;;17.25;14.00;;;;;9.92;64.23;100332.41;5101426;27;45409;-71
2023/04/14 07:38:37;;;;;;;;;14.00;14.00;;;;;9.94;64.54;100329.66;5100561;27;45357;-73
2023/04/14 07:41:05;;;;;;;;;13.00;12.00;;;;;9.93;64.33;100310.06;5082889;27;47903;-75
2023/04/14 07:43:33;;;;;;;;;11.00;11.00;;;;;10.02;64.68;100303.38;5095777;27;45465;-74
2023/04/14 07:46:03;;;;;;;;;9.75;8.50;;;;;10.09;64.00;100304.78;5095274;27;45339;-73
2023/04/14 07:48:33;;;;;;;;;10.75;10.75;;;;;10.14;63.89;100287.53;5090232;27;45441;-74
2023/04/14 07:50:58;;;;;;;;;13.00;13.00;;;;;10.21;64.08;100290.78;5070090;27;47010;-72
2023/04/14 07:53:24;;;;;;;;;11.75;11.75;;;;;10.17;63.26;100274.03;5082626;27;45434;-73
2023/04/14 07:55:49;;;;;;;;;8.75;8.75;;;;;10.29;63.25;100288.59;5074834;28;45383;-72
2023/04/14 07:58:15;;;;;;;;;11.25;11.25;;;;;10.27;63.21;100279.78;5072712;28;45420;-73
2023/04/14 08:00:40;;;;;;;;;9.00;8.00;;;;;10.32;63.35;100293.78;5080966;27;45457;-73
2023/04/14 08:03:06;;;;;;;;;6.00;6.00;;;;;10.26;62.91;100274.50;5073551;27;45389;-73
2023/04/14 08:05:32;;;;;;;;;8.75;8.00;;;;;10.24;62.93;100275.44;5074225;28;45474;-73
2023/04/14 08:07:57;;;;;;;;;7.00;7.00;;;;;10.32;63.04;100279.50;5073631;28;45419;-71
2023/04/14 08:10:22;;;;;;;;;12.00;10.00;;;;;10.29;62.73;100271.66;5073107;28;48883;-73
2023/04/14 08:12:47;;;;;;;;;8.25;8.25;;;;;10.16;63.24;100255.31;5074185;28;45322;-72
2023/04/14 08:15:13;;;;;;;;;9.75;9.00;;;;;10.27;63.21;100255.66;5095774;27;45409;-73
2023/04/14 08:17:38;;;;;;;;;12.00;9.50;;;;;10.32;63.42;100261.63;5073824;27;45451;-75
2023/04/14 08:20:05;;;;;;;;;9.75;9.00;;;;;10.52;63.84;100298.09;5077072;27;45385;-73
2023/04/14 08:22:31;;;;;;;;;7.75;7.75;;;;;10.50;62.69;100287.47;5082683;27;45487;-76
2023/04/14 08:24:56;;;;;;;;;8.50;8.50;;;;;10.42;63.35;100268.25;5076013;27;45324;-74
2023/04/14 08:27:21;;;;;;;;;4.50;4.50;;;;;10.34;63.40;100277.63;5079450;27;45443;-73
2023/04/14 08:29:47;;;;;;;;;5.25;4.25;;;;;10.31;63.54;100267.06;5085223;27;46410;-74
2023/04/14 08:32:13;;;;;;;;;7.25;7.25;;;;;10.42;63.40;100275.41;5080962;27;45535;-72
2023/04/14 08:34:38;;;;;;;;;4.00;4.00;;;;;10.42;63.40;100267.38;5097529;27;45559;-74
2023/04/14 08:37:03;;;;;;;;;3.75;3.75;;;;;10.46;63.37;100266.28;5097490;27;45369;-72
2023/04/14 08:39:29;;;;;;;;;5.00;3.50;;;;;10.61;63.00;100270.81;5097453;27;45358;-72
2023/04/14 08:41:57;;;;;;;;;3.50;3.50;;;;;10.59;62.75;100251.25;5098580;27;45325;-71
2023/04/14 08:44:22;;;;;;;;;4.25;4.25;;;;;10.61;62.64;100260.09;5098107;27;45389;-71
2023/04/14 08:46:51;;;;;;;;;4.75;4.75;;;;;10.54;63.05;100246.16;5097685;27;45442;-70
2023/04/14 08:49:34;;;;;;;;;8.00;6.00;;;;;10.70;62.72;100256.06;5097756;27;45629;-71
2023/04/14 08:52:02;;;;;;;;;4.50;4.50;;;;;10.84;62.79;100261.53;5097460;27;45288;-72
2023/04/14 08:54:29;;;;;;;;;4.00;4.00;;;;;10.83;62.32;100246.38;5097639;27;45401;-73
2023/04/14 08:56:56;;;;;;;;;4.00;4.00;;;;;11.03;62.01;100258.69;5097259;27;45424;-74
2023/04/14 08:59:22;;;;;;;;;5.00;5.00;;;;;10.94;62.04;100236.81;5097000;27;45553;-71
2023/04/14 09:01:48;;;;;;;;;4.00;4.00;;;;;11.04;61.77;100238.97;5084145;27;45157;-74
2023/04/14 09:04:15;;;;;;;;;8.00;5.50;;;;;11.07;61.70;100247.69;5068314;27;45329;-72
2023/04/14 09:06:41;;;;;;;;;3.25;3.25;;;;;11.06;62.21;100229.03;5080285;27;46133;-73
2023/04/14 09:09:07;;;;;;;;;4.50;4.50;;;;;11.12;61.61;100234.91;5076413;28;46187;-71
2023/04/14 09:11:33;;;;;;;;;5.00;5.00;;;;;11.05;61.28;100244.25;5076621;27;45540;-73
2023/04/14 09:14:00;;;;;;;;;2.00;2.00;;;;;11.10;61.55;100241.31;5082400;27;45370;-72
2023/04/14 09:16:26;;;;;;;;;4.75;4.75;;;;;11.09;62.19;100234.22;5080417;27;45410;-74
2023/04/14 09:18:56;;;;;;;;;4.00;3.00;;;;;11.08;61.68;100236.03;5076580;28;46585;-74
2023/04/14 09:21:22;;;;;;;;;3.50;3.50;;;;;11.00;61.86;100231.09;5076066;28;45427;-71
2023/04/14 09:23:47;;;;;;;;;4.00;4.00;;;;;10.91;62.24;100207.47;5067887;27;45422;-72
2023/04/14 09:26:13;;;;;;;;;4.50;4.50;;;;;11.08;62.07;100224.41;5079133;27;45517;-74
2023/04/14 09:28:40;;;;;;;;;3.50;3.50;;;;;11.13;62.10;100217.88;5082836;27;45902;-73
2023/04/14 09:31:07;;;;;;;;;5.25;4.00;;;;;11.08;61.64;100187.75;5092800;27;45369;-74
2023/04/14 09:33:36;;;;;;;;;4.75;3.75;;;;;11.27;61.38;100217.06;5077113;28;45378;-73
2023/04/14 09:36:02;;;;;;;;;5.50;2.75;;;;;11.12;62.04;100202.72;5076591;27;45662;-73
2023/04/14 09:38:38;;;;;;;;;4.50;4.50;;;;;11.17;61.64;100205.13;5076412;28;46034;-73
2023/04/14 09:41:07;;;;;;;;;3.00;3.00;;;;;11.21;61.74;100204.00;5076104;28;45343;-73
2023/04/14 09:43:32;;;;;;;;;3.25;2.00;;;;;11.16;61.77;100203.41;5076476;28;45337;-73
2023/04/14 09:46:04;;;;;;;;;1.75;1.75;;;;;11.19;61.70;100192.50;5071404;28;46124;-72
2023/04/14 09:48:29;;;;;;;;;3.75;3.75;;;;;11.27;61.98;100185.75;5090296;27;45604;-71
2023/04/14 09:51:00;;;;;;;;;2.50;2.25;;;;;11.23;61.57;100186.84;5096224;27;45497;-74
2023/04/14 09:53:27;;;;;;;;;3.00;3.00;;;;;11.23;61.75;100160.03;5081500;27;45261;-71
2023/04/14 09:55:53;;;;;;;;;4.75;4.00;;;;;11.40;61.59;100177.00;5076025;28;45514;-72
2023/04/14 09:58:21;;;;;;;;;2.25;2.25;;;;;11.44;61.75;100181.22;5075389;28;47165;-72
2023/04/14 10:00:48;;;;;;;;;8.75;4.00;;;;;11.38;61.78;100152.91;5081503;27;45445;-76
2023/04/14 10:03:13;;;;;;;;;2.75;2.75;;;;;11.66;61.62;100182.53;5078817;27;45267;-71
2023/04/14 10:05:38;;;;;;;;;2.25;2.25;;;;;11.64;61.20;100176.41;5075815;28;45205;-74
2023/04/14 10:08:05;;;;;;;;;6.00;3.00;;;;;11.66;61.15;100185.22;5075447;27;45417;-71
2023/04/14 10:10:31;;;;;;;;;4.00;2.00;;;;;11.67;62.25;100165.47;5075767;28;45315;-73
2023/04/14 10:12:58;;;;;;;;;4.00;2.00;;;;;11.70;61.03;100175.19;5074243;28;45481;-73
2023/04/14 10:15:24;;;;;;;;;4.00;2.00;;;;;11.73;60.92;100177.69;5076197;28;45298;-74
2023/04/14 10:17:49;;;;;;;;;3.00;2.00;;;;;11.73;61.27;100173.19;5075811;28;45389;-73
2023/04/14 10:20:15;;;;;;;;;2.25;2.25;;;;;11.65;61.14;100172.75;5075740;28;51541;-71
2023/04/14 10:22:42;;;;;;;;;1.00;1.00;;;;;11.72;61.48;100165.22;5087178;27;45501;-73
2023/04/14 10:25:08;;;;;;;;;2.00;2.00;;;;;11.53;60.90;100132.34;5095516;27;45372;-78
2023/04/14 10:27:34;;;;;;;;;1.25;1.25;;;;;11.75;60.58;100159.66;5096081;27;45550;-73
2023/04/14 10:30:00;;;;;;;;;2.00;2.00;;;;;11.82;61.03;100166.44;5095899;27;45322;-76
2023/04/14 10:32:32;;;;;;;;;3.50;2.75;;;;;11.74;60.09;100148.06;5070531;28;45327;-74
2023/04/14 10:35:09;;;;;;;;;5.00;3.00;;;;;11.76;60.19;100145.28;5096102;27;45631;-73
2023/04/14 10:37:35;;;;;;;;;1.00;1.00;;;;;11.78;60.45;100145.19;5093476;27;45450;-79
2023/04/14 10:40:06;;;;;;;;;2.00;1.00;;;;;11.48;60.31;100107.63;5079606;27;45675;-79
2023/04/14 10:42:52;;;;;;;;;4.00;2.00;;;;;11.66;60.76;100122.59;5097549;27;45383;-81
2023/04/14 10:45:18;;;;;;;;;1.50;1.50;;;;;11.69;60.91;100106.31;5097455;27;45463;-80
2023/04/14 10:47:44;;;;;;;;;1.00;1.00;;;;;11.98;60.93;100128.75;5077699;27;47771;-73
2023/04/14 10:50:13;;;;;;;;;3.75;2.75;;;;;11.98;59.89;100121.56;5095645;27;45341;-75
2023/04/14 10:52:53;;;;;;;;;3.25;3.00;;;;;11.97;59.84;100109.09;5087937;27;45386;-80
2023/04/14 10:55:24;;;;;;;;;1.75;1.75;;;;;11.87;60.16;100082.88;5069572;27;46996;-77
2023/04/14 10:57:49;;;;;;;;;2.50;2.00;;;;;12.21;60.02;100130.88;5081785;27;46178;-74
2023/04/14 11:00:27;;;;;;;;;4.00;2.75;;;;;12.31;59.90;100117.72;5095660;27;45329;-76
2023/04/14 11:03:13;;;;;;;;;1.25;1.25;;;;;12.31;60.19;100105.16;5095007;27;45349;-75
2023/04/14 11:05:44;;;;;;;;;4.00;2.00;;;;;12.32;59.45;100112.25;5095579;27;45476;-76
2023/04/14 11:08:32;;;;;;;;;1.50;1.25;;;;;12.34;60.06;100110.31;5076806;27;48184;-76
2023/04/14 11:11:05;;;;;;;;;2.00;2.00;;;;;12.36;60.51;100094.97;5095522;27;45350;-73
2023/04/14 11:13:33;;;;;;;;;6.25;2.50;;;;;12.39;60.83;100093.91;5095399;27;45290;-75
2023/04/14 11:16:07;;;;;;;;;3.75;2.75;;;;;12.39;60.98;100091.22;5095349;27;45567;-74
2023/04/14 11:18:36;;;;;;;;;3.00;3.00;;;;;12.40;60.99;100087.59;5077286;27;46861;-75
2023/04/14 11:21:07;;;;;;;;;2.75;2.00;;;;;12.31;61.49;100062.16;5094923;27;45307;-75
2023/04/14 11:23:34;;;;;;;;;2.00;2.00;;;;;12.39;61.54;100084.03;5094718;27;45334;-74
2023/04/14 11:26:00;;;;;;;;;3.00;1.75;;;;;12.42;61.60;100072.19;5095403;27;45556;-75
2023/04/14 11:28:39;;;;;;;;;1.50;1.00;;;;;12.47;62.30;100072.78;5094337;27;46856;-75
2023/04/14 11:31:07;;;;;;;;;2.00;2.00;;;;;12.51;62.44;100074.28;5076379;27;45368;-75
2023/04/14 11:33:35;;;;;;;;;4.25;2.75;;;;;12.50;61.84;100065.34;5095444;27;45525;-75
2023/04/14 11:36:01;;;;;;;;;2.00;2.00;;;;;12.47;62.48;100036.00;5094933;27;45309;-75
2023/04/14 11:38:27;;;;;;;;;1.00;1.00;;;;;12.54;61.79;100051.72;5095220;27;45247;-74
2023/04/14 11:40:53;;;;;;;;;1.50;1.50;;;;;12.52;61.58;100066.13;5095148;27;45386;-74
2023/04/14 11:43:20;;;;;;;;;2.00;2.00;;;;;12.54;62.20;100062.47;5077171;27;45389;-75
2023/04/14 11:45:47;;;;;;;;;1.00;1.00;;;;;12.49;61.79;100041.28;5077344;27;45362;-76
2023/04/14 11:48:15;;;;;;;;;1.75;1.75;;;;;12.32;61.77;100018.19;5087238;27;46066;-75
2023/04/14 11:50:42;;;;;;;;;1.00;1.00;;;;;12.42;61.81;100048.88;5072972;27;45461;-75
2023/04/14 11:53:09;;;;;;;;;2.50;2.00;;;;;12.47;62.34;100070.94;5095021;27;45732;-78
2023/04/14 11:55:35;;;;;;;;;3.00;3.00;;;;;12.46;61.36;100062.97;5084738;27;45466;-73
2023/04/14 11:58:02;;;;;;;;;5.50;1.25;;;;;12.18;61.98;100053.13;5083180;27;45362;-76
2023/04/14 12:00:28;;;;;;;;;2.50;2.50;;;;;12.22;62.16;100072.63;5097437;27;45429;-78
2023/04/14 12:02:53;;;;;;;;;1.00;1.00;;;;;11.86;62.90;100041.72;5074011;28;45493;-77
2023/04/14 12:05:22;;;;;;;;;2.75;2.75;;;;;12.04;64.59;100097.00;5074169;27;45595;-76
2023/04/14 12:07:50;;;;;;;;;1.75;1.00;;;;;11.97;65.12;100086.72;5101712;27;46339;-76
2023/04/14 12:10:16;;;;;;;;;3.00;1.00;;;;;11.88;65.59;100096.22;5079590;27;45300;-74
2023/04/14 12:12:41;;;;;;;;;3.00;0.25;;;;;11.66;65.90;100076.94;5078013;28;45374;-76
2023/04/14 12:15:08;;;;;;;;;1.50;1.50;;;;;11.69;66.79;100084.84;5077379;27;45644;-76
2023/04/14 12:17:34;;;;;;;;;1.75;1.00;;;;;11.79;66.82;100094.09;5077652;27;45561;-73
2023/04/14 12:19:59;;;;;;;;;3.00;0.00;;;;;11.85;66.74;100080.28;5077194;28;45362;-75
2023/04/14 12:22:27;;;;;;;;;1.00;1.00;;;;;11.92;67.21;100088.81;5077264;28;45413;-76
2023/04/14 12:24:54;;;;;;;;;3.00;1.00;;;;;11.84;65.89;100077.69;5077568;27;45429;-76
2023/04/14 12:27:22;;;;;;;;;4.00;1.00;;;;;11.74;67.01;100063.91;5078135;27;46369;-75
2023/04/14 12:29:48;;;;;;;;;0.00;0.00;;;;;11.70;66.93;100059.72;5093072;27;45413;-76
2023/04/14 12:32:16;;;;;;;;;1.00;1.00;;;;;11.66;66.97;100047.41;5084545;27;45280;-74
2023/04/14 12:34:57;;;;;;;;;1.00;1.00;;;;;11.40;66.78;100019.47;5076694;28;45616;-75
2023/04/14 12:37:26;;;;;;;;;1.00;1.00;;;;;11.71;66.58;100070.38;5075915;27;45295;-74
2023/04/14 12:40:05;;;;;;;;;1.00;1.00;;;;;11.73;66.13;100060.41;5076513;28;45325;-75
2023/04/14 12:42:44;;;;;;;;;1.00;1.00;;;;;11.73;66.64;100056.84;5077518;27;45336;-74
2023/04/14 12:45:10;;;;;;;;;2.50;1.00;;;;;11.78;66.73;100065.50;5077155;28;45945;-76
2023/04/14 12:47:36;;;;;;;;;1.25;1.25;;;;;11.61;67.02;100044.16;5077840;27;45248;-73
2023/04/14 12:50:23;;;;;;;;;1.25;0.75;;;;;11.46;67.33;100045.09;5078135;28;45576;-76
2023/04/14 12:52:49;;;;;;;;;1.00;1.00;;;;;11.42;67.82;100043.53;5090870;27;45484;-77
2023/04/14 12:55:19;;;;;;;;;2.00;2.00;;;;;11.49;68.30;100069.06;5109597;27;45260;-76
2023/04/14 12:57:45;;;;;;;;;1.50;0.75;;;;;11.38;67.64;100048.25;5102937;27;45960;-77
2023/04/14 13:00:11;;;;;;;;;1.00;1.00;;;;;11.16;67.68;100026.31;5102965;27;45241;-77
2023/04/14 13:02:36;;;;;;;;;1.50;1.00;;;;;11.19;69.13;100063.72;5090306;27;45330;-74
2023/04/14 13:05:03;;;;;;;;;0.00;0.00;;;;;11.19;68.76;100069.09;5076969;28;45500;-75
2023/04/14 13:07:29;;;;;;;;;0.75;0.75;;;;;11.19;70.07;100056.53;5082441;27;46391;-74
2023/04/14 13:09:55;;;;;;;;;0.00;0.00;;;;;11.14;69.72;100031.81;5097596;27;45389;-75
2023/04/14 13:12:21;;;;;;;;;0.00;0.00;;;;;11.22;69.73;100053.69;5097884;27;45374;-74
2023/04/14 13:14:46;;;;;;;;;0.00;0.00;;;;;11.04;70.04;100009.16;5079103;27;46205;-76
2023/04/14 13:17:11;;;;;;;;;1.00;1.00;;;;;11.25;70.03;100041.88;5078500;27;47863;-77
2023/04/14 13:19:37;;;;;;;;;0.00;0.00;;;;;11.26;70.65;100038.25;5097414;27;45365;-74
2023/04/14 13:22:02;;;;;;;;;3.00;0.00;;;;;11.18;70.31;100024.44;5097193;27;45543;-75
2023/04/14 13:24:27;;;;;;;;;1.75;1.00;;;;;11.21;69.79;100043.91;5078758;27;46260;-75
2023/04/14 13:26:53;;;;;;;;;1.50;0.00;;;;;11.23;69.64;100027.69;5097327;27;45559;-76
2023/04/14 13:29:18;;;;;;;;;0.75;0.75;;;;;11.23;70.18;100007.09;5096951;27;45292;-74
2023/04/14 13:31:44;;;;;;;;;0.00;0.00;;;;;11.16;70.46;99976.22;5088192;27;45290;-75
2023/04/14 13:34:10;;;;;;;;;3.00;1.00;;;;;11.30;70.00;99995.06;5076950;27;45335;-76
2023/04/14 13:36:35;;;;;;;;;2.50;2.50;;;;;11.50;69.90;100015.28;5076429;28;47151;-75
2023/04/14 13:39:01;;;;;;;;;1.00;1.00;;;;;11.64;70.15;100018.00;5076209;28;45331;-75
2023/04/14 13:41:27;;;;;;;;;3.00;3.00;;;;;11.67;68.50;100011.56;5076529;27;45232;-74
2023/04/14 13:43:53;;;;;;;;;3.50;2.00;;;;;11.48;69.10;99950.13;5088471;27;45413;-75
2023/04/14 13:46:18;;;;;;;;;0.75;0.00;;;;;11.60;68.60;99991.44;5078444;27;47303;-77
2023/04/14 13:48:43;;;;;;;;;2.25;1.00;;;;;11.64;68.72;100011.78;5077591;27;45577;-76
2023/04/14 13:51:09;;;;;;;;;1.00;1.00;;;;;11.53;69.01;100003.50;5096469;27;45313;-76
2023/04/14 13:53:34;;;;;;;;;1.00;1.00;;;;;11.49;69.09;100000.13;5094576;27;45418;-76
2023/04/14 13:55:59;;;;;;;;;1.00;1.00;;;;;11.51;68.62;100026.88;5084446;27;45578;-75
2023/04/14 13:58:25;;;;;;;;;3.00;1.00;;;;;11.49;69.61;100012.69;5097027;27;45444;-76
2023/04/14 14:00:51;;;;;;;;;1.50;1.00;;;;;11.41;69.67;100007.78;5097085;27;45412;-74
2023/04/14 14:03:16;;;;;;;;;1.75;1.75;;;;;11.38;69.03;100006.19;5096816;27;45476;-74
2023/04/14 14:05:42;;;;;;;;;1.75;1.75;;;;;11.46;69.41;100019.13;5096638;27;45523;-74
2023/04/14 14:08:07;;;;;;;;;0.00;0.00;;;;;11.42;69.88;99997.91;5076425;27;45625;-74
2023/04/14 14:10:32;;;;;;;;;1.00;1.00;;;;;11.51;70.76;100008.97;5075950;28;45656;-76
2023/04/14 14:12:58;;;;;;;;;1.00;1.00;;;;;11.52;70.26;100012.50;5075607;28;45356;-74
2023/04/14 14:15:23;;;;;;;;;1.00;1.00;;;;;11.54;70.95;99997.19;5075558;28;46355;-74
2023/04/14 14:17:48;;;;;;;;;1.00;1.00;;;;;11.54;70.66;99994.50;5075910;28;45467;-75
2023/04/14 14:20:14;;;;;;;;;0.00;0.00;;;;;11.40;70.58;99975.72;5075700;28;45351;-74
2023/04/14 14:22:39;;;;;;;;;1.75;1.00;;;;;11.29;70.14;99966.50;5077024;27;45457;-74
2023/04/14 14:25:07;;;;;;;;;1.00;1.00;;;;;11.42;70.35;99985.38;5081653;27;46991;-74
2023/04/14 14:27:32;;;;;;;;;1.00;1.00;;;;;11.34;71.23;99950.97;5073139;27;45350;-75
2023/04/14 14:29:58;;;;;;;;;1.00;1.00;;;;;11.60;70.90;99986.91;5095405;27;45381;-74
2023/04/14 14:32:24;;;;;;;;;1.00;1.00;;;;;11.67;71.58;99982.88;5080977;27;45232;-74
2023/04/14 14:34:50;;;;;;;;;1.75;1.00;;;;;11.72;71.43;99979.94;5075138;28;45377;-74
2023/04/14 14:37:16;;;;;;;;;0.00;0.00;;;;;11.66;70.46;99969.56;5074804;27;45353;-74
2023/04/14 14:39:41;;;;;;;;;0.00;0.00;;;;;11.66;70.52;99973.09;5082647;27;45485;-79
2023/04/14 14:42:07;;;;;;;;;1.00;1.00;;;;;11.46;70.43;99930.56;5075155;27;45379;-75
2023/04/14 14:44:32;;;;;;;;;2.00;1.00;;;;;11.70;70.59;99966.59;5076678;27;46839;-74
2023/04/14 14:46:58;;;;;;;;;0.00;0.00;;;;;11.70;70.17;99968.41;5088735;27;45527;-75
2023/04/14 14:49:23;;;;;;;;;0.25;0.25;;;;;11.68;70.68;99975.69;5095633;27;45373;-75
2023/04/14 14:51:48;;;;;;;;;1.00;1.00;;;;;11.54;70.72;99935.44;5092909;27;46213;-73
2023/04/14 14:54:14;;;;;;;;;0.00;0.00;;;;;11.70;70.72;99971.09;5095582;27;46399;-76
2023/04/14 14:56:40;;;;;;;;;1.00;1.00;;;;;11.66;70.04;99973.09;5081581;27;45370;-77
2023/04/14 14:59:07;;;;;;;;;1.00;1.00;;;;;11.69;70.36;99967.56;5074914;28;45470;-74
2023/04/14 15:01:34;;;;;;;;;2.00;1.25;;;;;11.70;70.72;99974.66;5093948;27;45173;-73
2023/04/14 15:03:59;;;;;;;;;1.00;1.00;;;;;11.66;69.91;99951.63;5095630;27;45434;-74
2023/04/14 15:06:26;;;;;;;;;0.00;0.00;;;;;11.62;70.11;99955.47;5081192;27;45357;-73
2023/04/14 15:08:52;;;;;;;;;1.00;1.00;;;;;11.49;70.19;99937.53;5075315;28;45319;-77
2023/04/14 15:11:17;;;;;;;;;1.00;1.00;;;;;11.44;70.48;99929.78;5080044;27;45385;-74
2023/04/14 15:13:43;;;;;;;;;1.00;1.00;;;;;11.59;70.25;99949.44;5094977;27;45346;-74
2023/04/14 15:16:08;;;;;;;;;0.00;0.00;;;;;11.53;70.19;99929.22;5093877;27;45406;-78
2023/04/14 15:18:34;;;;;;;;;1.00;1.00;;;;;11.46;70.65;99916.28;5094601;27;45378;-76
2023/04/14 15:21:00;;;;;;;;;1.25;1.25;;;;;11.58;70.34;99945.88;5094352;27;45325;-77
2023/04/14 15:23:26;;;;;;;;;0.25;0.25;;;;;11.64;70.18;99958.06;5093894;27;45553;-77
2023/04/14 15:25:51;;;;;;;;;1.50;1.25;;;;;11.57;70.59;99935.25;5094128;27;45307;-77
2023/04/14 15:28:16;;;;;;;;;1.00;0.75;;;;;11.52;70.77;99918.56;5093810;27;45369;-78
2023/04/14 15:30:42;;;;;;;;;1.50;1.50;;;;;11.48;70.96;99899.13;5093429;27;45393;-78
2023/04/14 15:33:07;;;;;;;;;1.75;1.00;;;;;11.58;71.36;99905.59;5073682;28;45245;-78
2023/04/14 15:35:35;;;;;;;;;1.00;1.00;;;;;11.75;71.55;99923.38;5075068;28;45259;-77
2023/04/14 15:38:02;;;;;;;;;2.25;2.00;;;;;11.69;71.79;99916.53;5064084;27;45413;-80
2023/04/14 15:40:27;;;;;;;;;2.00;2.00;;;;;11.75;71.84;99918.84;5077499;27;46711;-77
2023/04/14 15:42:52;;;;;;;;;1.00;1.00;;;;;11.66;71.38;99895.25;5076926;28;48619;-78
2023/04/14 15:45:18;;;;;;;;;2.00;1.00;;;;;11.63;71.07;99897.28;5073761;27;45493;-78
2023/04/14 15:47:44;;;;;;;;;0.00;0.00;;;;;11.64;71.25;99901.69;5080340;27;45910;-78
2023/04/14 15:50:10;;;;;;;;;2.00;2.00;;;;;11.63;71.31;99892.78;5098487;27;45495;-78
2023/04/14 15:52:37;;;;;;;;;1.00;1.00;;;;;11.67;71.35;99896.97;5089785;27;46323;-78
2023/04/14 15:55:03;;;;;;;;;2.00;2.00;;;;;11.88;71.47;99935.06;5077937;27;45334;-76